sensor_id;sensor_type;location;lat;lon;timestamp;temperature;humidity
55701;DHT22;41604;43.142;20.512;2022-07-22T00:02:00;589.40;1894.40
55701;DHT22;41604;43.142;20.512;2022-07-22T00:04:26;589.40;1894.40
55701;DHT22;41604;43.142;20.512;2022-07-22T00:06:53;589.40;1894.40
55701;DHT22;41604;43.142;20.512;2022-07-22T00:09:19;589.50;1894.40
55701;DHT22;41604;43.142;20.512;2022-07-22T00:11:45;589.50;1894.40
55701;DHT22;41604;43.142;20.512;2022-07-22T00:14:11;589.40;1920.00
55701;DHT22;41604;43.142;20.512;2022-07-22T00:16:39;589.40;1920.00
55701;DHT22;41604;43.142;20.512;2022-07-22T00:19:05;589.40;1920.00
55701;DHT22;41604;43.142;20.512;2022-07-22T00:21:31;589.40;1920.00
55701;DHT22;41604;43.142;20.512;2022-07-22T00:23:57;589.30;1920.00
55701;DHT22;41604;43.142;20.512;2022-07-22T00:26:23;589.30;1920.00
55701;DHT22;41604;43.142;20.512;2022-07-22T00:28:49;589.20;1920.00
55701;DHT22;41604;43.142;20.512;2022-07-22T00:31:15;589.20;1920.00
55701;DHT22;41604;43.142;20.512;2022-07-22T00:33:41;589.20;1920.00
55701;DHT22;41604;43.142;20.512;2022-07-22T00:36:07;589.20;1920.00
55701;DHT22;41604;43.142;20.512;2022-07-22T00:38:34;589.30;1920.00
55701;DHT22;41604;43.142;20.512;2022-07-22T00:41:00;589.20;1920.00
55701;DHT22;41604;43.142;20.512;2022-07-22T00:43:27;589.10;1920.00
55701;DHT22;41604;43.142;20.512;2022-07-22T00:45:53;589.10;1945.60
55701;DHT22;41604;43.142;20.512;2022-07-22T00:48:19;589.10;1945.60
55701;DHT22;41604;43.142;20.512;2022-07-22T00:50:45;589.00;1945.60
55701;DHT22;41604;43.142;20.512;2022-07-22T00:53:11;589.00;1945.60
55701;DHT22;41604;43.142;20.512;2022-07-22T00:55:38;589.10;1920.00
55701;DHT22;41604;43.142;20.512;2022-07-22T00:58:04;589.00;1945.60
55701;DHT22;41604;43.142;20.512;2022-07-22T01:00:30;589.00;1945.60
55701;DHT22;41604;43.142;20.512;2022-07-22T01:02:56;589.00;1945.60
55701;DHT22;41604;43.142;20.512;2022-07-22T01:05:23;589.00;1945.60
55701;DHT22;41604;43.142;20.512;2022-07-22T01:07:49;589.00;1945.60
55701;DHT22;41604;43.142;20.512;2022-07-22T01:10:15;589.00;1945.60
55701;DHT22;41604;43.142;20.512;2022-07-22T01:12:41;589.00;1945.60
55701;DHT22;41604;43.142;20.512;2022-07-22T01:15:07;588.90;1945.60
55701;DHT22;41604;43.142;20.512;2022-07-22T01:17:33;588.80;1945.60
55701;DHT22;41604;43.142;20.512;2022-07-22T01:20:05;588.90;1945.60
55701;DHT22;41604;43.142;20.512;2022-07-22T01:22:31;564.10;1971.20
55701;DHT22;41604;43.142;20.512;2022-07-22T01:24:58;564.10;1971.20
55701;DHT22;41604;43.142;20.512;2022-07-22T01:27:24;564.10;1971.20
55701;DHT22;41604;43.142;20.512;2022-07-22T01:29:50;564.10;1971.20
55701;DHT22;41604;43.142;20.512;2022-07-22T01:32:16;564.00;1971.20
55701;DHT22;41604;43.142;20.512;2022-07-22T01:34:42;564.00;1971.20
55701;DHT22;41604;43.142;20.512;2022-07-22T01:37:10;564.10;1971.20
55701;DHT22;41604;43.142;20.512;2022-07-22T01:39:37;564.10;1971.20
55701;DHT22;41604;43.142;20.512;2022-07-22T01:42:03;564.00;1971.20
55701;DHT22;41604;43.142;20.512;2022-07-22T01:44:31;564.00;1971.20
55701;DHT22;41604;43.142;20.512;2022-07-22T01:46:57;564.00;1971.20
55701;DHT22;41604;43.142;20.512;2022-07-22T01:49:25;564.00;1971.20
55701;DHT22;41604;43.142;20.512;2022-07-22T01:51:52;564.00;1971.20
55701;DHT22;41604;43.142;20.512;2022-07-22T01:54:18;563.90;1971.20
55701;DHT22;41604;43.142;20.512;2022-07-22T01:56:44;563.90;1996.80
55701;DHT22;41604;43.142;20.512;2022-07-22T01:59:10;563.90;1996.80
55701;DHT22;41604;43.142;20.512;2022-07-22T02:01:36;563.90;1996.80
55701;DHT22;41604;43.142;20.512;2022-07-22T02:04:02;563.80;1996.80
55701;DHT22;41604;43.142;20.512;2022-07-22T02:06:28;563.80;1996.80
55701;DHT22;41604;43.142;20.512;2022-07-22T02:08:56;563.80;1996.80
55701;DHT22;41604;43.142;20.512;2022-07-22T02:11:22;563.80;1996.80
55701;DHT22;41604;43.142;20.512;2022-07-22T02:13:49;563.80;1996.80
55701;DHT22;41604;43.142;20.512;2022-07-22T02:16:15;563.80;1996.80
55701;DHT22;41604;43.142;20.512;2022-07-22T02:18:41;563.80;1996.80
55701;DHT22;41604;43.142;20.512;2022-07-22T02:21:07;563.90;1996.80
55701;DHT22;41604;43.142;20.512;2022-07-22T02:23:33;563.80;1996.80
55701;DHT22;41604;43.142;20.512;2022-07-22T02:25:59;563.70;1996.80
55701;DHT22;41604;43.142;20.512;2022-07-22T02:28:25;563.80;1996.80
55701;DHT22;41604;43.142;20.512;2022-07-22T02:30:51;563.70;1996.80
55701;DHT22;41604;43.142;20.512;2022-07-22T02:33:18;563.70;1996.80
55701;DHT22;41604;43.142;20.512;2022-07-22T02:35:43;563.70;1996.80
55701;DHT22;41604;43.142;20.512;2022-07-22T02:38:09;563.70;1996.80
55701;DHT22;41604;43.142;20.512;2022-07-22T02:40:35;563.60;1996.80
55701;DHT22;41604;43.142;20.512;2022-07-22T02:43:02;563.30;1996.80
55701;DHT22;41604;43.142;20.512;2022-07-22T02:45:28;563.40;2022.40
55701;DHT22;41604;43.142;20.512;2022-07-22T02:47:55;563.40;2022.40
55701;DHT22;41604;43.142;20.512;2022-07-22T02:50:23;563.40;2022.40
55701;DHT22;41604;43.142;20.512;2022-07-22T02:52:49;563.40;2022.40
55701;DHT22;41604;43.142;20.512;2022-07-22T02:55:16;563.30;2022.40
55701;DHT22;41604;43.142;20.512;2022-07-22T02:57:42;563.40;2022.40
55701;DHT22;41604;43.142;20.512;2022-07-22T03:00:09;563.40;2022.40
55701;DHT22;41604;43.142;20.512;2022-07-22T03:02:36;563.40;2022.40
55701;DHT22;41604;43.142;20.512;2022-07-22T03:05:04;563.30;2022.40
55701;DHT22;41604;43.142;20.512;2022-07-22T03:07:31;563.40;2048.00
55701;DHT22;41604;43.142;20.512;2022-07-22T03:09:57;563.30;2048.00
55701;DHT22;41604;43.142;20.512;2022-07-22T03:12:23;563.40;2022.40
55701;DHT22;41604;43.142;20.512;2022-07-22T03:14:49;563.30;2022.40
55701;DHT22;41604;43.142;20.512;2022-07-22T03:17:15;563.40;2022.40
55701;DHT22;41604;43.142;20.512;2022-07-22T03:19:41;563.30;2022.40
55701;DHT22;41604;43.142;20.512;2022-07-22T03:22:08;563.30;2048.00
55701;DHT22;41604;43.142;20.512;2022-07-22T03:24:34;563.30;2048.00
55701;DHT22;41604;43.142;20.512;2022-07-22T03:27:00;563.30;2048.00
55701;DHT22;41604;43.142;20.512;2022-07-22T03:29:26;563.20;2048.00
55701;DHT22;41604;43.142;20.512;2022-07-22T03:31:52;563.20;2048.00
55701;DHT22;41604;43.142;20.512;2022-07-22T03:34:18;563.20;2048.00
55701;DHT22;41604;43.142;20.512;2022-07-22T03:36:44;563.20;2048.00
55701;DHT22;41604;43.142;20.512;2022-07-22T03:39:10;563.20;2048.00
55701;DHT22;41604;43.142;20.512;2022-07-22T03:41:36;563.20;2048.00
55701;DHT22;41604;43.142;20.512;2022-07-22T03:44:02;563.20;2048.00
55701;DHT22;41604;43.142;20.512;2022-07-22T03:46:28;563.20;2048.00
55701;DHT22;41604;43.142;20.512;2022-07-22T03:48:54;563.20;2048.00
55701;DHT22;41604;43.142;20.512;2022-07-22T03:51:20;538.50;2022.40
55701;DHT22;41604;43.142;20.512;2022-07-22T03:53:46;563.20;2048.00
55701;DHT22;41604;43.142;20.512;2022-07-22T03:56:12;563.20;2048.00
55701;DHT22;41604;43.142;20.512;2022-07-22T03:58:39;563.20;2048.00
55701;DHT22;41604;43.142;20.512;2022-07-22T04:01:05;563.20;2048.00
55701;DHT22;41604;43.142;20.512;2022-07-22T04:03:31;563.20;2048.00
55701;DHT22;41604;43.142;20.512;2022-07-22T04:05:57;563.20;2048.00
55701;DHT22;41604;43.142;20.512;2022-07-22T04:08:23;563.20;2048.00
55701;DHT22;41604;43.142;20.512;2022-07-22T04:10:49;563.30;2048.00
55701;DHT22;41604;43.142;20.512;2022-07-22T04:13:15;563.40;2048.00
55701;DHT22;41604;43.142;20.512;2022-07-22T04:15:42;563.20;2048.00
55701;DHT22;41604;43.142;20.512;2022-07-22T04:18:08;563.30;2048.00
55701;DHT22;41604;43.142;20.512;2022-07-22T04:20:34;563.50;2048.00
55701;DHT22;41604;43.142;20.512;2022-07-22T04:23:00;563.50;2022.40
55701;DHT22;41604;43.142;20.512;2022-07-22T04:25:26;563.60;2022.40
55701;DHT22;41604;43.142;20.512;2022-07-22T04:27:52;563.60;2022.40
55701;DHT22;41604;43.142;20.512;2022-07-22T04:30:18;563.70;1996.80
55701;DHT22;41604;43.142;20.512;2022-07-22T04:32:44;563.90;2022.40
55701;DHT22;41604;43.142;20.512;2022-07-22T04:35:10;563.90;1996.80
55701;DHT22;41604;43.142;20.512;2022-07-22T04:37:36;563.90;1996.80
55701;DHT22;41604;43.142;20.512;2022-07-22T04:40:03;563.90;1996.80
55701;DHT22;41604;43.142;20.512;2022-07-22T04:42:29;564.00;1996.80
55701;DHT22;41604;43.142;20.512;2022-07-22T04:44:55;564.10;1996.80
55701;DHT22;41604;43.142;20.512;2022-07-22T04:47:21;564.10;1971.20
55701;DHT22;41604;43.142;20.512;2022-07-22T04:49:47;564.10;1971.20
55701;DHT22;41604;43.142;20.512;2022-07-22T04:52:13;588.80;1971.20
55701;DHT22;41604;43.142;20.512;2022-07-22T04:54:39;564.00;1996.80
55701;DHT22;41604;43.142;20.512;2022-07-22T04:57:05;564.10;1996.80
55701;DHT22;41604;43.142;20.512;2022-07-22T04:59:31;564.00;1971.20
55701;DHT22;41604;43.142;20.512;2022-07-22T05:01:57;563.90;1996.80
55701;DHT22;41604;43.142;20.512;2022-07-22T05:04:23;564.10;1971.20
55701;DHT22;41604;43.142;20.512;2022-07-22T05:06:49;563.90;1996.80
55701;DHT22;41604;43.142;20.512;2022-07-22T05:09:15;563.90;1996.80
55701;DHT22;41604;43.142;20.512;2022-07-22T05:11:42;563.90;1996.80
55701;DHT22;41604;43.142;20.512;2022-07-22T05:14:08;564.10;1996.80
55701;DHT22;41604;43.142;20.512;2022-07-22T05:16:36;588.80;1971.20
55701;DHT22;41604;43.142;20.512;2022-07-22T05:19:04;588.80;1971.20
55701;DHT22;41604;43.142;20.512;2022-07-22T05:21:31;588.90;1971.20
55701;DHT22;41604;43.142;20.512;2022-07-22T05:23:57;588.80;1971.20
55701;DHT22;41604;43.142;20.512;2022-07-22T05:26:23;564.10;1996.80
55701;DHT22;41604;43.142;20.512;2022-07-22T05:28:50;564.10;1971.20
55701;DHT22;41604;43.142;20.512;2022-07-22T05:31:16;588.80;1971.20
55701;DHT22;41604;43.142;20.512;2022-07-22T05:33:43;588.90;1971.20
55701;DHT22;41604;43.142;20.512;2022-07-22T05:36:10;588.90;1971.20
55701;DHT22;41604;43.142;20.512;2022-07-22T05:38:36;589.00;1971.20
55701;DHT22;41604;43.142;20.512;2022-07-22T05:41:03;588.90;1971.20
55701;DHT22;41604;43.142;20.512;2022-07-22T05:43:29;589.20;1971.20
55701;DHT22;41604;43.142;20.512;2022-07-22T05:45:56;589.20;1945.60
55701;DHT22;41604;43.142;20.512;2022-07-22T05:48:22;589.40;1945.60
55701;DHT22;41604;43.142;20.512;2022-07-22T05:50:48;589.40;1920.00
55701;DHT22;41604;43.142;20.512;2022-07-22T05:53:14;589.50;1920.00
55701;DHT22;41604;43.142;20.512;2022-07-22T05:55:40;589.70;1920.00
55701;DHT22;41604;43.142;20.512;2022-07-22T05:58:06;589.70;1894.40
55701;DHT22;41604;43.142;20.512;2022-07-22T06:00:32;589.70;1894.40
55701;DHT22;41604;43.142;20.512;2022-07-22T06:02:58;614.40;1894.40
55701;DHT22;41604;43.142;20.512;2022-07-22T06:05:25;614.40;1868.80
55701;DHT22;41604;43.142;20.512;2022-07-22T06:07:51;614.50;1868.80
55701;DHT22;41604;43.142;20.512;2022-07-22T06:12:44;614.50;1868.80
55701;DHT22;41604;43.142;20.512;2022-07-22T23:55:06;614.60;1894.40
55701;DHT22;41604;43.142;20.512;2022-07-22T23:57:33;615.20;1792.00
55701;DHT22;41604;43.142;20.512;2022-07-22T23:59:59;615.00;1792.00
